Gorman, South Dakota
Current Conditions -  °F | °C
As of 8:52 PM on Sunday 21 Dec 2014 (Local Time) from KMBG Reporting Station
Haze Haze  
Wind Chill: 24°   Ceiling: 200
Heat Index: 30°   Visibility: 0.75mi
Dew Point: 29°   Wind: 6mph
Humidity: 96%   Direction: 120°ESE
Pressure: 29.41"   Gusts: NA
Location:  45.0613°N, 100.079°W
Report Text: KMBG 220252Z AUTO 12005KT 3/4SM BR OVC002 M01/M02 A2941 RMK AO2 SLP979 I1000 I3000 T10111017 50001
Loading
Personal Weather Stations






























Interactive Weather Map New forecast layout! Learn more

10-Day Weather Forecast

Advertisements
Track Severe Weather on mobile